createdAt,value
2023-01-19T00:01:27.519Z,78.91
2023-01-19T00:03:54.921Z,79.01
2023-01-19T00:06:22.360Z,78.28
2023-01-19T00:08:52.838Z,78.23
2023-01-19T00:11:20.483Z,77.81
2023-01-19T00:13:50.745Z,77.54
2023-01-19T00:16:22.935Z,77.81
2023-01-19T00:18:52.586Z,77.87
2023-01-19T00:21:21.739Z,77.96
2023-01-19T00:23:51.203Z,78.22
2023-01-19T00:26:21.975Z,78.68
2023-01-19T00:28:50.337Z,79.07
2023-01-19T00:31:20.593Z,79.37
2023-01-19T00:33:49.266Z,79.48
2023-01-19T00:36:16.723Z,80.18
2023-01-19T00:38:44.130Z,80.36
2023-01-19T00:41:11.595Z,80.52
2023-01-19T00:43:38.995Z,80.95
2023-01-19T00:46:06.668Z,81.33
2023-01-19T00:48:34.100Z,81.48
2023-01-19T00:51:01.634Z,81.56
2023-01-19T00:53:32.472Z,81.60
2023-01-19T00:55:59.864Z,82.01
2023-01-19T00:58:27.470Z,82.08
2023-01-19T01:00:57.501Z,81.58
2023-01-19T01:03:28.016Z,80.77
2023-01-19T01:05:55.748Z,80.77
2023-01-19T01:08:23.267Z,79.91
2023-01-19T01:10:51.905Z,79.90
2023-01-19T01:13:21.432Z,79.82
2023-01-19T01:15:53.431Z,79.23
2023-01-19T01:18:22.133Z,78.72
2023-01-19T01:20:49.688Z,78.72
2023-01-19T01:23:23.095Z,78.99
2023-01-19T01:25:50.688Z,79.20
2023-01-19T01:28:18.153Z,79.04
2023-01-19T01:30:45.510Z,78.42
2023-01-19T01:33:13.367Z,78.47
2023-01-19T01:35:40.891Z,78.61
2023-01-19T01:38:09.404Z,78.44
2023-01-19T01:40:40.451Z,78.29
2023-01-19T01:43:17.593Z,78.08
2023-01-19T01:45:45.292Z,78.13
2023-01-19T01:48:22.420Z,77.83
2023-01-19T01:51:27.017Z,77.10
2023-01-19T01:54:11.888Z,76.95
2023-01-19T01:56:44.196Z,76.93
2023-01-19T01:59:26.096Z,76.89
2023-01-19T02:02:18.052Z,76.98
2023-01-19T02:05:04.150Z,77.10
2023-01-19T02:08:14.671Z,76.89
2023-01-19T02:11:03.220Z,76.35
2023-01-19T02:13:33.423Z,76.17
2023-01-19T02:16:08.466Z,76.16
2023-01-19T02:18:37.481Z,76.71
2023-01-19T02:21:30.508Z,75.82
2023-01-19T02:24:01.647Z,76.38
2023-01-19T02:26:44.390Z,75.78
2023-01-19T02:29:17.663Z,75.36
2023-01-19T02:31:45.889Z,76.02
2023-01-19T02:34:17.866Z,75.78
2023-01-19T02:36:53.442Z,75.49
2023-01-19T02:39:31.225Z,75.04
2023-01-19T02:42:09.776Z,73.75
2023-01-19T02:44:39.533Z,73.95
2023-01-19T02:47:07.503Z,73.28
2023-01-19T02:49:34.898Z,73.54
2023-01-19T02:52:02.861Z,74.01
2023-01-19T02:55:09.522Z,74.34
2023-01-19T03:48:54.340Z,76.40
2023-01-19T03:51:22.414Z,76.50
2023-01-19T03:53:50.121Z,76.02
2023-01-19T03:56:22.042Z,75.76
2023-01-19T03:58:49.906Z,75.89
2023-01-19T04:01:22.714Z,76.40
2023-01-19T04:03:51.889Z,76.24
2023-01-19T04:06:21.132Z,75.69
2023-01-19T04:08:52.042Z,75.21
2023-01-19T04:11:19.563Z,75.18
2023-01-19T04:13:47.024Z,74.87
2023-01-19T04:16:14.455Z,74.08
2023-01-19T04:18:42.380Z,74.65
2023-01-19T04:21:09.783Z,74.78
2023-01-19T04:23:37.190Z,74.63
2023-01-19T04:26:07.866Z,75.04
2023-01-19T04:28:37.234Z,74.95
2023-01-19T04:31:07.017Z,74.71
2023-01-19T04:33:35.243Z,74.95
2023-01-19T04:36:04.127Z,74.91
2023-01-19T04:38:31.551Z,75.43
2023-01-19T04:40:58.936Z,75.80
2023-01-19T04:43:26.356Z,75.70
2023-01-19T04:45:53.749Z,75.52
2023-01-19T04:48:22.020Z,75.51
2023-01-19T04:50:52.616Z,76.10
2023-01-19T04:53:19.947Z,76.53
2023-01-19T04:55:47.750Z,76.66
2023-01-19T04:58:15.213Z,76.91
2023-01-19T05:00:43.505Z,77.08
2023-01-19T05:03:10.866Z,77.17
2023-01-19T05:05:38.400Z,77.31
2023-01-19T05:08:06.095Z,77.15
2023-01-19T05:10:33.532Z,77.07
2023-01-19T05:13:01.122Z,77.28
2023-01-19T05:15:29.633Z,77.63
2023-01-19T05:17:58.113Z,77.73
2023-01-19T05:20:25.562Z,77.92
2023-01-19T05:22:53.386Z,77.80
2023-01-19T05:25:20.783Z,78.13
2023-01-19T05:27:48.331Z,78.28
2023-01-19T05:30:16.653Z,78.33
2023-01-19T05:32:44.307Z,78.61
2023-01-19T05:35:13.476Z,78.58
2023-01-19T05:37:41.026Z,78.54
2023-01-19T05:40:09.550Z,78.76
2023-01-19T05:42:37.148Z,78.63
2023-01-19T05:45:05.573Z,78.59
2023-01-19T05:47:32.785Z,78.69
2023-01-19T05:50:00.041Z,78.52
2023-01-19T05:52:27.420Z,78.45
2023-01-19T05:54:55.243Z,78.50
2023-01-19T05:57:23.320Z,78.75
2023-01-19T05:59:50.637Z,78.66
2023-01-19T06:02:18.178Z,78.86
2023-01-19T06:04:45.545Z,78.43
2023-01-19T06:07:12.905Z,78.62
2023-01-19T06:09:40.302Z,78.26
2023-01-19T06:12:07.711Z,77.58
2023-01-19T06:14:36.968Z,77.78
2023-01-19T06:17:06.115Z,77.43
2023-01-19T06:19:34.750Z,76.62
2023-01-19T06:22:02.879Z,76.07
2023-01-19T06:24:30.439Z,75.63
2023-01-19T06:26:57.771Z,75.91
2023-01-19T06:29:25.498Z,75.78
2023-01-19T06:31:53.637Z,75.39
2023-01-19T06:34:21.576Z,75.32
2023-01-19T06:36:48.925Z,75.60
2023-01-19T06:39:16.272Z,75.35
2023-01-19T06:41:43.641Z,75.68
2023-01-19T06:44:10.953Z,75.32
2023-01-19T06:46:38.376Z,74.64
2023-01-19T06:49:05.829Z,74.11
2023-01-19T06:51:33.345Z,73.59
2023-01-19T06:54:00.758Z,73.64
2023-01-19T06:56:28.119Z,73.77
2023-01-19T06:58:56.119Z,74.25
2023-01-19T07:01:23.516Z,74.15
2023-01-19T07:03:51.225Z,73.93
2023-01-19T07:06:18.626Z,73.87
2023-01-19T07:08:46.032Z,73.23
2023-01-19T07:11:25.563Z,72.20
2023-01-19T07:13:59.803Z,71.88
2023-01-19T07:16:27.516Z,71.27
2023-01-19T07:18:55.399Z,71.58
2023-01-19T07:21:23.270Z,71.18
2023-01-19T07:23:53.967Z,70.35
2023-01-19T07:26:24.916Z,65.53
2023-01-19T07:28:52.699Z,62.13
2023-01-19T07:31:20.810Z,58.74
2023-01-19T07:33:48.189Z,58.66
2023-01-19T07:36:15.621Z,60.56
2023-01-19T07:38:43.039Z,63.09
2023-01-19T07:41:10.926Z,63.63
2023-01-19T07:43:38.317Z,64.32
2023-01-19T07:46:07.822Z,64.01
2023-01-19T07:48:35.411Z,64.87
2023-01-19T07:51:05.799Z,65.35
2023-01-19T07:53:33.382Z,65.74
2023-01-19T07:56:00.728Z,66.03
2023-01-19T07:58:28.285Z,66.87
2023-01-19T08:00:55.875Z,67.05
2023-01-19T08:03:23.319Z,66.71
2023-01-19T08:05:53.091Z,67.94
2023-01-19T08:08:20.779Z,66.96
2023-01-19T08:10:52.662Z,65.55
2023-01-19T08:13:20.019Z,63.38
2023-01-19T08:15:52.960Z,61.24
2023-01-19T08:18:21.359Z,59.90
2023-01-19T08:20:48.910Z,57.99
2023-01-19T08:23:18.069Z,56.65
2023-01-19T08:25:46.178Z,57.10
2023-01-19T08:28:16.803Z,58.62
2023-01-19T08:30:45.061Z,58.42
2023-01-19T08:33:13.865Z,57.72
2023-01-19T08:35:47.274Z,57.88
2023-01-19T08:38:15.458Z,58.28
2023-01-19T08:40:43.217Z,58.58
2023-01-19T08:43:16.675Z,57.84
2023-01-19T08:45:50.261Z,59.46
2023-01-19T08:48:24.772Z,57.41
2023-01-19T08:50:53.440Z,54.74
2023-01-19T08:53:23.621Z,53.55
2023-01-19T08:56:03.515Z,54.41
2023-01-19T08:58:30.830Z,54.42
2023-01-19T09:01:01.954Z,55.39
2023-01-19T09:03:30.364Z,55.04
2023-01-19T09:05:57.777Z,54.60
2023-01-19T09:08:25.119Z,56.02
2023-01-19T09:10:52.594Z,55.24
2023-01-19T09:13:20.636Z,55.99
2023-01-19T09:15:48.399Z,55.97
2023-01-19T09:18:20.247Z,56.15
2023-01-19T09:20:50.228Z,56.15
2023-01-19T09:23:20.469Z,56.16
2023-01-19T09:25:48.895Z,56.52
2023-01-19T09:28:17.762Z,55.70
2023-01-19T09:30:45.513Z,54.98
2023-01-19T09:33:16.844Z,53.50
2023-01-19T09:35:47.098Z,51.63
2023-01-19T09:38:16.831Z,51.35
2023-01-19T09:40:53.228Z,51.02
2023-01-19T09:43:35.302Z,50.97
2023-01-19T09:46:18.844Z,49.06
2023-01-19T09:48:52.692Z,48.56
2023-01-19T09:51:27.789Z,48.17
2023-01-19T09:54:19.922Z,47.83
2023-01-19T09:56:52.429Z,45.82
2023-01-19T09:59:30.873Z,44.61
2023-01-19T10:02:25.785Z,43.91
2023-01-19T10:05:12.411Z,43.96
2023-01-19T10:08:21.461Z,43.96
2023-01-19T10:10:54.489Z,43.47
2023-01-19T10:13:48.825Z,45.73
2023-01-19T10:16:47.143Z,45.90
2023-01-19T10:19:33.728Z,45.27
2023-01-19T10:22:22.204Z,46.37
2023-01-19T10:24:56.567Z,43.41
2023-01-19T10:27:30.248Z,44.17
2023-01-19T10:29:59.556Z,44.26
2023-01-19T10:32:33.490Z,44.51
2023-01-19T10:35:01.060Z,45.06
2023-01-19T10:37:34.334Z,45.60
2023-01-19T10:40:29.072Z,46.40
2023-01-19T10:42:57.585Z,43.80
2023-01-19T10:45:30.896Z,43.38
2023-01-19T10:48:06.419Z,41.97
2023-01-19T10:50:41.343Z,43.95
2023-01-19T10:53:22.201Z,43.75
2023-01-19T10:56:23.837Z,42.68
2023-01-19T10:58:51.620Z,43.07
2023-01-19T11:01:26.480Z,43.05
2023-01-19T11:04:00.046Z,43.81
2023-01-19T11:06:30.730Z,43.44
2023-01-19T11:09:30.262Z,42.13
2023-01-19T11:11:57.672Z,43.88
2023-01-19T11:14:29.319Z,42.36
2023-01-19T11:16:58.843Z,42.39
2023-01-19T11:19:31.326Z,42.22
2023-01-19T11:22:33.342Z,40.62
2023-01-19T11:25:04.738Z,41.47
2023-01-19T11:27:37.506Z,40.66
2023-01-19T11:30:25.764Z,41.72
2023-01-19T11:32:54.468Z,40.97
2023-01-19T11:35:39.405Z,41.69
2023-01-19T11:38:12.856Z,43.21
2023-01-19T11:40:55.119Z,43.59
2023-01-19T11:43:43.391Z,44.38
2023-01-19T11:46:17.577Z,44.50
2023-01-19T11:49:13.909Z,44.58
2023-01-19T11:52:13.255Z,44.31
2023-01-19T11:55:01.527Z,44.83
2023-01-19T11:57:29.006Z,46.47
2023-01-19T11:59:58.692Z,46.11
2023-01-19T12:02:37.250Z,47.14
2023-01-19T12:05:14.730Z,48.60
2023-01-19T12:07:45.385Z,48.04
2023-01-19T12:10:38.132Z,51.71
2023-01-19T12:13:05.473Z,53.07
2023-01-19T12:15:42.548Z,54.47
2023-01-19T12:18:32.334Z,55.03
2023-01-19T12:21:01.334Z,55.82
2023-01-19T12:24:03.800Z,56.20
2023-01-19T12:26:42.102Z,57.28
2023-01-19T12:29:15.513Z,57.40
2023-01-19T12:31:43.367Z,57.89
2023-01-19T12:34:42.295Z,58.92
2023-01-19T12:37:30.849Z,59.52
2023-01-19T12:40:14.151Z,60.58
2023-01-19T12:42:47.651Z,60.19
2023-01-19T12:45:20.833Z,59.92
2023-01-19T12:47:53.694Z,59.67
2023-01-19T12:50:25.805Z,59.39
2023-01-19T12:52:58.568Z,59.79
2023-01-19T12:55:33.596Z,59.77
2023-01-19T12:58:10.635Z,60.55
2023-01-19T13:00:42.850Z,60.41
2023-01-19T13:03:19.226Z,60.13
2023-01-19T13:05:56.805Z,60.26
2023-01-19T13:09:00.928Z,60.60
2023-01-19T13:11:33.361Z,60.45
2023-01-19T13:14:01.803Z,60.74
2023-01-19T13:16:29.225Z,59.91
2023-01-19T13:19:01.682Z,59.37
2023-01-19T13:21:58.249Z,59.42
2023-01-19T13:24:45.697Z,59.98
2023-01-19T13:27:13.495Z,60.71
2023-01-19T13:29:43.869Z,61.74
2023-01-19T13:32:18.831Z,62.61
2023-01-19T13:34:54.599Z,62.96
2023-01-19T13:37:27.710Z,62.78
2023-01-19T13:39:55.867Z,64.14
2023-01-19T13:42:34.141Z,66.61
2023-01-19T13:45:16.305Z,69.27
2023-01-19T13:47:48.782Z,69.52
2023-01-19T13:50:24.396Z,63.53
2023-01-19T13:52:54.063Z,62.99
2023-01-19T13:55:23.655Z,65.07
2023-01-19T13:57:52.219Z,66.81
2023-01-19T14:00:38.521Z,64.89
2023-01-19T14:03:23.818Z,64.85
2023-01-19T14:05:55.316Z,65.98
2023-01-19T14:08:25.599Z,66.66
2023-01-19T14:10:56.477Z,64.93
2023-01-19T14:13:34.399Z,65.71
2023-01-19T14:16:13.710Z,66.02
2023-01-19T14:18:41.235Z,65.99
2023-01-19T14:21:14.494Z,66.53
2023-01-19T14:23:55.138Z,66.43
2023-01-19T14:26:37.547Z,67.27
2023-01-19T14:29:28.352Z,67.40
2023-01-19T14:32:01.449Z,67.76
2023-01-19T14:34:45.231Z,67.78
2023-01-19T14:37:28.715Z,67.96
2023-01-19T14:40:08.914Z,68.40
2023-01-19T14:42:42.368Z,68.27
2023-01-19T14:45:29.028Z,68.51
2023-01-19T14:48:18.162Z,68.65
2023-01-19T14:51:02.047Z,69.05
2023-01-19T14:53:37.518Z,69.36
2023-01-19T14:56:06.856Z,69.58
2023-01-19T14:58:35.909Z,71.77
2023-01-19T15:01:04.653Z,74.83
2023-01-19T15:03:43.982Z,76.63
2023-01-19T15:06:16.701Z,78.03
2023-01-19T15:08:45.495Z,79.39
2023-01-19T15:11:31.568Z,80.18
2023-01-19T15:14:00.361Z,80.57
2023-01-19T15:16:31.484Z,80.83
2023-01-19T15:18:58.860Z,81.65
2023-01-19T15:21:26.934Z,82.05
2023-01-19T15:23:55.457Z,82.46
2023-01-19T15:26:26.300Z,82.94
2023-01-19T15:28:55.768Z,83.63
2023-01-19T15:31:26.055Z,83.88
2023-01-19T15:33:54.106Z,84.19
2023-01-19T15:36:24.246Z,84.34
2023-01-19T15:38:51.630Z,84.53
2023-01-19T15:41:30.078Z,84.59
2023-01-19T15:43:58.472Z,84.97
2023-01-19T15:46:26.321Z,85.19
2023-01-19T15:48:54.387Z,84.94
2023-01-19T15:51:27.800Z,84.82
2023-01-19T15:53:55.702Z,84.77
2023-01-19T15:56:27.995Z,84.76
2023-01-19T15:58:57.974Z,84.77
2023-01-19T16:01:35.156Z,84.93
2023-01-19T16:04:06.838Z,85.05
2023-01-19T16:06:34.544Z,85.49
2023-01-19T16:09:03.788Z,85.60
2023-01-19T16:11:34.314Z,85.86
2023-01-19T16:14:02.024Z,86.05
2023-01-19T16:16:29.935Z,86.26
2023-01-19T16:18:58.004Z,86.30
2023-01-19T16:21:26.095Z,86.50
2023-01-19T16:23:53.692Z,86.30
2023-01-19T16:26:34.919Z,86.33
2023-01-19T16:29:09.763Z,86.68
2023-01-19T16:31:39.224Z,86.69
2023-01-19T16:34:07.788Z,86.92
2023-01-19T16:36:37.544Z,86.88
2023-01-19T16:39:12.128Z,86.83
2023-01-19T16:41:40.250Z,86.94
2023-01-19T16:44:09.502Z,86.65
2023-01-19T16:46:40.703Z,86.67
2023-01-19T16:49:16.864Z,86.43
2023-01-19T16:51:44.809Z,86.16
2023-01-19T16:54:19.589Z,86.02
2023-01-19T16:56:48.081Z,86.14
2023-01-19T16:59:17.063Z,86.12
2023-01-19T17:01:45.999Z,86.28
2023-01-19T17:04:14.439Z,86.27
2023-01-19T17:06:41.965Z,86.41
2023-01-19T17:09:10.057Z,86.35
2023-01-19T17:11:40.247Z,86.31
2023-01-19T17:14:15.498Z,86.26
2023-01-19T17:16:44.284Z,86.01
2023-01-19T17:19:16.768Z,86.09
2023-01-19T17:21:49.742Z,86.00
2023-01-19T17:24:17.702Z,86.07
2023-01-19T17:26:45.970Z,85.69
2023-01-19T17:29:13.336Z,85.59
2023-01-19T17:31:41.252Z,85.61
2023-01-19T17:34:09.842Z,85.97
2023-01-19T17:36:37.957Z,86.03
2023-01-19T17:39:09.326Z,86.01
2023-01-19T17:41:36.929Z,86.19
2023-01-19T17:44:06.312Z,86.28
2023-01-19T17:46:37.403Z,86.26
2023-01-19T17:49:07.390Z,86.31
2023-01-19T17:51:35.848Z,86.41
2023-01-19T17:54:04.167Z,86.35
2023-01-19T17:56:36.693Z,86.43
2023-01-19T17:59:06.608Z,86.50
2023-01-19T18:01:38.209Z,86.56
2023-01-19T18:04:07.712Z,86.83
2023-01-19T18:06:35.332Z,86.83
2023-01-19T18:09:04.938Z,86.78
2023-01-19T18:11:32.439Z,86.92
2023-01-19T18:14:02.857Z,87.38
2023-01-19T18:16:30.872Z,87.46
2023-01-19T18:18:58.397Z,87.78
2023-01-19T18:21:28.220Z,87.86
2023-01-19T18:24:02.275Z,88.28
2023-01-19T18:26:31.286Z,88.46
2023-01-19T18:28:58.765Z,88.62
2023-01-19T18:31:27.800Z,88.92
2023-01-19T18:33:55.587Z,89.24
2023-01-19T18:36:23.267Z,89.49
2023-01-19T18:38:51.402Z,89.58
2023-01-19T18:41:21.604Z,89.84
2023-01-19T18:43:49.769Z,89.96
2023-01-19T18:46:17.313Z,89.98
2023-01-19T18:48:44.867Z,90.06
2023-01-19T18:51:15.845Z,90.17
2023-01-19T18:53:45.012Z,90.31
2023-01-19T18:56:15.490Z,90.42
2023-01-19T18:58:44.385Z,90.76
2023-01-19T19:01:32.512Z,90.62
2023-01-19T19:04:01.240Z,90.63
2023-01-19T19:06:29.171Z,90.65
2023-01-19T19:08:59.342Z,90.78
2023-01-19T19:11:28.185Z,90.87
2023-01-19T19:14:00.196Z,90.87
2023-01-19T19:16:28.930Z,90.74
2023-01-19T19:18:56.476Z,90.80
2023-01-19T19:21:25.468Z,90.81
2023-01-19T19:23:58.699Z,90.74
2023-01-19T19:26:28.284Z,90.99
2023-01-19T19:28:55.939Z,90.92
2023-01-19T19:31:26.100Z,91.02
2023-01-19T19:33:55.602Z,91.08
2023-01-19T19:36:25.125Z,91.27
2023-01-19T19:38:52.690Z,91.29
2023-01-19T19:41:27.072Z,91.34
2023-01-19T19:43:55.717Z,91.36
2023-01-19T19:46:24.438Z,91.38
2023-01-19T19:48:53.227Z,91.26
2023-01-19T19:51:27.176Z,91.28
2023-01-19T19:53:58.973Z,91.28
2023-01-19T19:56:31.608Z,91.40
2023-01-19T19:58:59.726Z,91.39
2023-01-19T20:01:32.861Z,91.29
2023-01-19T20:04:10.849Z,91.52
2023-01-19T20:06:44.741Z,91.40
2023-01-19T20:09:14.056Z,91.34
2023-01-19T20:11:44.077Z,91.30
2023-01-19T20:14:14.367Z,91.33
2023-01-19T20:16:42.242Z,91.33
2023-01-19T20:19:10.239Z,91.26
2023-01-19T20:21:41.791Z,91.16
2023-01-19T20:24:15.605Z,91.06
2023-01-19T20:26:48.186Z,91.04
2023-01-19T20:29:16.064Z,90.98
2023-01-19T20:31:51.504Z,91.04
2023-01-19T20:34:22.301Z,91.12
2023-01-19T20:36:51.602Z,91.14
2023-01-19T20:39:21.441Z,91.16
2023-01-19T20:41:51.219Z,90.97
2023-01-19T20:44:23.830Z,91.31
2023-01-19T20:46:52.234Z,91.74
2023-01-19T20:49:19.767Z,91.94
2023-01-19T20:51:47.423Z,91.98
2023-01-19T20:54:18.222Z,91.95
2023-01-19T20:56:45.666Z,91.99
2023-01-19T20:59:13.797Z,91.84
2023-01-19T21:01:42.503Z,91.96
2023-01-19T21:04:10.979Z,92.07
2023-01-19T21:06:39.118Z,92.13
2023-01-19T21:09:08.687Z,92.19
2023-01-19T21:11:38.895Z,92.11
2023-01-19T21:14:07.735Z,92.08
2023-01-19T21:16:36.726Z,92.03
2023-01-19T21:19:05.317Z,92.21
2023-01-19T21:21:32.750Z,92.12
2023-01-19T21:24:02.425Z,92.21
2023-01-19T21:26:31.462Z,92.05
2023-01-19T21:29:00.776Z,91.95
2023-01-19T21:31:29.033Z,92.01
2023-01-19T21:33:59.509Z,91.98
2023-01-19T21:36:27.606Z,91.97
2023-01-19T21:39:00.745Z,91.98
2023-01-19T21:41:30.298Z,92.06
2023-01-19T21:44:00.082Z,91.98
2023-01-19T21:46:33.412Z,91.96
2023-01-19T21:49:07.338Z,91.92
2023-01-19T21:51:37.187Z,91.85
2023-01-19T21:54:06.579Z,91.80
2023-01-19T21:56:35.557Z,91.78
2023-01-19T21:59:03.490Z,91.71
2023-01-19T22:01:34.885Z,91.67
2023-01-19T22:04:02.544Z,91.74
2023-01-19T22:06:30.071Z,91.72
2023-01-19T22:08:58.416Z,91.64
2023-01-19T22:11:25.882Z,91.61
2023-01-19T22:13:54.556Z,91.61
2023-01-19T22:16:23.561Z,91.77
2023-01-19T22:18:59.488Z,91.90
2023-01-19T22:21:35.959Z,91.93
2023-01-19T22:24:05.284Z,91.96
2023-01-19T22:26:34.499Z,91.93
2023-01-19T22:29:04.522Z,91.85
2023-01-19T22:31:32.121Z,91.94
2023-01-19T22:33:59.524Z,91.84
2023-01-19T22:36:31.000Z,91.67
2023-01-19T22:39:05.293Z,91.65
2023-01-19T22:41:43.440Z,91.51
2023-01-19T22:44:23.654Z,91.47
2023-01-19T22:46:55.840Z,91.69
2023-01-19T22:49:23.392Z,91.35
2023-01-19T22:51:50.769Z,91.20
2023-01-19T22:54:18.144Z,91.32
2023-01-19T22:56:45.834Z,91.44
2023-01-19T22:59:13.307Z,91.35
2023-01-19T23:01:43.710Z,91.30
2023-01-19T23:04:15.559Z,91.46
2023-01-19T23:06:46.864Z,91.37
2023-01-19T23:09:15.046Z,91.35
2023-01-19T23:11:50.164Z,91.28
2023-01-19T23:14:21.920Z,91.33
2023-01-19T23:16:49.465Z,91.31
2023-01-19T23:19:18.285Z,91.34
2023-01-19T23:21:46.219Z,91.30
2023-01-19T23:24:13.614Z,91.35
2023-01-19T23:26:41.007Z,91.39
2023-01-19T23:29:14.320Z,91.40
2023-01-19T23:31:48.322Z,91.49
2023-01-19T23:34:16.273Z,91.44
2023-01-19T23:36:44.554Z,91.54
2023-01-19T23:39:19.172Z,91.57
2023-01-19T23:41:47.471Z,91.75
2023-01-19T23:44:15.377Z,91.72
2023-01-19T23:46:43.953Z,91.62
2023-01-19T23:49:12.674Z,91.55
2023-01-19T23:51:40.804Z,91.59
2023-01-19T23:54:08.365Z,91.66
2023-01-19T23:56:38.351Z,91.59
2023-01-19T23:59:12.698Z,91.60
